createdAt,value
2017-11-09T00:00:55.281Z,7.50
2017-11-09T00:03:21.957Z,7.63
2017-11-09T00:05:54.024Z,6.87
2017-11-09T00:08:20.231Z,7.50
2017-11-09T00:10:46.548Z,6.17
2017-11-09T00:13:13.068Z,7.33
2017-11-09T00:15:39.278Z,6.97
2017-11-09T00:18:05.529Z,6.53
2017-11-09T00:20:31.734Z,6.30
2017-11-09T00:22:57.937Z,6.33
2017-11-09T00:25:24.854Z,7.50
2017-11-09T00:27:51.052Z,7.63
2017-11-09T00:30:17.279Z,7.03
2017-11-09T00:32:43.526Z,6.87
2017-11-09T00:35:09.737Z,6.13
2017-11-09T00:37:35.930Z,7.60
2017-11-09T00:40:02.488Z,7.50
2017-11-09T00:42:28.751Z,6.93
2017-11-09T00:44:54.958Z,7.00
2017-11-09T00:47:21.223Z,6.90
2017-11-09T00:49:47.423Z,7.13
2017-11-09T00:52:13.610Z,7.30
2017-11-09T00:54:39.942Z,6.00
2017-11-09T00:57:06.141Z,7.13
2017-11-09T00:59:32.353Z,6.70
2017-11-09T01:01:58.621Z,6.40
2017-11-09T01:04:24.827Z,6.67
2017-11-09T01:06:51.020Z,6.80
2017-11-09T01:09:17.271Z,5.70
2017-11-09T01:11:43.459Z,6.77
2017-11-09T01:14:09.999Z,7.20
2017-11-09T01:16:36.687Z,7.10
2017-11-09T01:19:02.898Z,6.33
2017-11-09T01:21:29.103Z,7.07
2017-11-09T01:23:55.676Z,6.90
2017-11-09T01:26:21.888Z,7.33
2017-11-09T01:28:48.150Z,6.77
2017-11-09T01:31:14.539Z,6.13
2017-11-09T01:33:40.728Z,6.10
2017-11-09T01:36:06.931Z,6.43
2017-11-09T01:38:33.272Z,6.57
2017-11-09T01:40:59.459Z,7.57
2017-11-09T01:43:25.654Z,5.87
2017-11-09T01:45:52.297Z,7.20
2017-11-09T01:48:18.741Z,6.40
2017-11-09T01:50:44.930Z,6.10
2017-11-09T01:53:11.254Z,5.70
2017-11-09T01:55:37.443Z,6.43
2017-11-09T01:58:03.622Z,6.43
2017-11-09T02:00:30.232Z,7.17
2017-11-09T02:02:56.434Z,6.87
2017-11-09T02:05:22.631Z,6.23
2017-11-09T02:07:48.977Z,7.03
2017-11-09T02:10:15.178Z,6.87
2017-11-09T02:12:41.392Z,6.23
2017-11-09T02:15:07.968Z,6.90
2017-11-09T02:17:34.172Z,7.17
2017-11-09T02:20:00.446Z,6.57
2017-11-09T02:22:26.705Z,5.70
2017-11-09T02:24:53.158Z,5.87
2017-11-09T02:27:19.598Z,6.90
2017-11-09T02:29:46.300Z,5.87
2017-11-09T02:32:12.737Z,6.50
2017-11-09T02:34:38.926Z,6.00
2017-11-09T02:37:05.253Z,6.70
2017-11-09T02:39:31.488Z,6.47
2017-11-09T02:41:57.718Z,6.50
2017-11-09T02:44:24.331Z,6.17
2017-11-09T02:46:50.549Z,6.27
2017-11-09T02:49:16.735Z,6.50
2017-11-09T02:51:43.055Z,6.13
2017-11-09T02:54:09.340Z,6.30
2017-11-09T02:56:35.881Z,6.70
2017-11-09T02:59:02.525Z,6.53
2017-11-09T03:01:28.990Z,6.30
2017-11-09T03:03:55.193Z,7.27
2017-11-09T03:06:21.460Z,7.03
2017-11-09T03:08:47.659Z,6.23
2017-11-09T03:11:13.863Z,6.27
2017-11-09T03:13:40.192Z,7.30
2017-11-09T03:16:06.394Z,6.20
2017-11-09T03:18:32.856Z,6.17
2017-11-09T03:20:59.192Z,6.77
2017-11-09T03:23:25.723Z,6.47
2017-11-09T03:25:51.914Z,6.30
2017-11-09T03:28:18.473Z,6.00
2017-11-09T03:30:44.764Z,6.80
2017-11-09T03:33:11.216Z,7.27
2017-11-09T03:35:37.547Z,6.80
2017-11-09T03:38:04.014Z,6.03
2017-11-09T03:40:30.225Z,6.20
2017-11-09T03:42:56.796Z,5.83
2017-11-09T03:45:22.996Z,6.20
2017-11-09T03:47:49.201Z,5.20
2017-11-09T03:50:15.448Z,6.30
2017-11-09T03:52:41.635Z,7.30
2017-11-09T03:55:07.850Z,6.10
2017-11-09T03:57:34.095Z,6.00
2017-11-09T04:00:00.310Z,6.00
2017-11-09T04:02:26.808Z,6.27
2017-11-09T04:04:53.153Z,7.63
2017-11-09T04:07:19.670Z,6.57
2017-11-09T04:09:45.870Z,6.23
2017-11-09T04:12:12.113Z,5.70
2017-11-09T04:14:38.398Z,6.40
2017-11-09T04:17:04.597Z,5.70
2017-11-09T04:19:30.883Z,5.97
2017-11-09T04:21:57.098Z,7.00
2017-11-09T04:24:23.300Z,7.40
2017-11-09T04:26:49.539Z,5.30
2017-11-09T04:29:15.732Z,6.67
2017-11-09T04:31:41.922Z,6.20
2017-11-09T04:34:08.199Z,6.50
2017-11-09T04:36:34.395Z,5.73
2017-11-09T04:39:00.588Z,5.97
2017-11-09T04:41:26.840Z,6.00
2017-11-09T04:43:53.039Z,6.60
2017-11-09T04:46:19.243Z,6.40
2017-11-09T04:48:45.539Z,6.27
2017-11-09T04:51:11.723Z,7.07
2017-11-09T04:53:38.211Z,6.87
2017-11-09T04:56:04.747Z,5.80
2017-11-09T04:58:30.930Z,6.10
2017-11-09T05:00:57.118Z,6.23
2017-11-09T05:03:23.379Z,6.73
2017-11-09T05:05:49.564Z,5.77
2017-11-09T05:08:15.762Z,5.80
2017-11-09T05:10:42.116Z,5.23
2017-11-09T05:13:08.310Z,5.50
2017-11-09T05:15:34.501Z,5.77
2017-11-09T05:18:00.920Z,5.50
2017-11-09T05:20:27.118Z,6.00
2017-11-09T05:22:53.299Z,6.37
2017-11-09T05:25:19.555Z,6.57
2017-11-09T05:27:45.742Z,5.50
2017-11-09T05:30:12.000Z,6.20
2017-11-09T05:32:38.682Z,5.80
2017-11-09T05:35:04.890Z,6.67
2017-11-09T05:37:31.107Z,6.17
2017-11-09T05:39:57.774Z,5.47
2017-11-09T05:42:23.977Z,6.10
2017-11-09T05:44:50.157Z,5.40
2017-11-09T05:47:16.409Z,5.50
2017-11-09T05:49:42.626Z,6.70
2017-11-09T05:52:09.119Z,5.67
2017-11-09T05:54:35.457Z,6.47
2017-11-09T05:57:01.654Z,5.90
2017-11-09T05:59:27.850Z,5.73
2017-11-09T06:01:54.119Z,5.90
2017-11-09T06:04:20.330Z,6.53
2017-11-09T06:06:46.558Z,6.50
2017-11-09T06:09:13.135Z,5.87
2017-11-09T06:11:39.568Z,5.60
2017-11-09T06:14:05.755Z,6.97
2017-11-09T06:16:32.356Z,7.07
2017-11-09T06:18:58.554Z,7.40
2017-11-09T06:21:24.765Z,6.87
2017-11-09T06:23:51.020Z,7.53
2017-11-09T06:26:17.335Z,7.63
2017-11-09T06:28:43.781Z,7.60
2017-11-09T06:31:10.419Z,8.37
2017-11-09T06:33:36.728Z,8.63
2017-11-09T06:36:02.954Z,7.80
2017-11-09T06:38:29.291Z,7.17
2017-11-09T06:40:55.734Z,7.60
2017-11-09T06:43:21.924Z,8.00
2017-11-09T06:45:48.815Z,7.67
2017-11-09T06:48:15.010Z,7.67
2017-11-09T06:50:41.202Z,7.03
2017-11-09T06:53:07.459Z,8.10
2017-11-09T06:55:33.720Z,8.33
2017-11-09T06:57:59.921Z,8.70
2017-11-09T07:00:26.264Z,7.37
2017-11-09T07:02:52.492Z,7.90
2017-11-09T07:05:18.687Z,8.03
2017-11-09T07:07:45.052Z,8.60
2017-11-09T07:10:11.256Z,7.67
2017-11-09T07:12:37.484Z,7.87
2017-11-09T07:15:03.737Z,8.57
2017-11-09T07:17:29.950Z,8.37
2017-11-09T07:19:56.284Z,7.80
2017-11-09T07:22:22.615Z,7.37
2017-11-09T07:24:48.817Z,7.57
2017-11-09T07:27:15.047Z,7.77
2017-11-09T07:29:41.611Z,9.17
2017-11-09T07:32:07.820Z,9.67
2017-11-09T07:34:34.595Z,9.30
2017-11-09T07:37:01.332Z,9.70
2017-11-09T07:39:27.638Z,8.70
2017-11-09T07:41:54.095Z,9.60
2017-11-09T07:44:20.363Z,8.20
2017-11-09T07:46:46.564Z,8.40
2017-11-09T07:49:12.764Z,10.00
2017-11-09T07:51:39.119Z,9.20
2017-11-09T07:54:05.459Z,9.90
2017-11-09T07:56:31.671Z,9.47
2017-11-09T07:58:58.293Z,10.57
2017-11-09T08:01:24.479Z,9.13
2017-11-09T08:03:50.679Z,8.80
2017-11-09T08:06:17.218Z,8.17
2017-11-09T08:08:43.409Z,8.80
2017-11-09T08:11:09.608Z,8.60
2017-11-09T08:13:35.906Z,9.73
2017-11-09T08:16:02.116Z,8.03
2017-11-09T08:18:28.322Z,10.33
2017-11-09T08:20:54.920Z,8.50
2017-11-09T08:23:21.160Z,9.03
2017-11-09T08:25:48.122Z,8.53
2017-11-09T08:28:15.707Z,8.63
2017-11-09T08:30:44.415Z,9.43
2017-11-09T08:33:13.276Z,8.77
2017-11-09T08:35:39.692Z,8.63
2017-11-09T08:38:06.216Z,9.67
2017-11-09T08:40:32.417Z,9.80
2017-11-09T08:42:59.167Z,9.17
2017-11-09T08:45:25.476Z,9.67
2017-11-09T08:47:51.677Z,9.37
2017-11-09T08:50:18.174Z,9.10
2017-11-09T08:52:44.380Z,9.27
2017-11-09T08:55:10.584Z,10.00
2017-11-09T08:57:36.862Z,8.60
2017-11-09T09:00:03.292Z,9.07
2017-11-09T09:02:29.483Z,9.80
2017-11-09T09:04:55.835Z,9.40
2017-11-09T09:07:22.031Z,9.53
2017-11-09T09:09:48.240Z,9.00
2017-11-09T09:12:14.559Z,9.20
2017-11-09T09:14:40.824Z,10.10
2017-11-09T09:17:07.330Z,9.20
2017-11-09T09:19:34.022Z,9.60
2017-11-09T09:22:05.046Z,9.60
2017-11-09T09:24:31.463Z,10.10
2017-11-09T09:27:01.727Z,9.43
2017-11-09T09:29:31.794Z,9.43
2017-11-09T09:31:58.160Z,9.53
2017-11-09T09:37:39.128Z,10.00
2017-11-09T09:40:08.166Z,8.70
2017-11-09T09:42:34.426Z,9.40
2017-11-09T09:45:00.690Z,8.97
2017-11-09T09:47:27.322Z,10.30
2017-11-09T09:49:53.562Z,10.00
2017-11-09T09:52:19.785Z,10.63
2017-11-09T09:54:46.115Z,10.60
2017-11-09T09:57:12.419Z,9.67
2017-11-09T09:59:38.627Z,10.10
2017-11-09T10:02:05.705Z,10.60
2017-11-09T10:04:32.199Z,11.33
2017-11-09T10:06:58.396Z,11.53
2017-11-09T10:09:24.723Z,11.00
2017-11-09T10:11:50.947Z,10.33
2017-11-09T10:14:17.202Z,12.60
2017-11-09T10:16:43.511Z,11.40
2017-11-09T10:19:09.804Z,10.83
2017-11-09T10:21:36.070Z,13.37
2017-11-09T10:24:02.438Z,13.13
2017-11-09T10:26:28.646Z,13.67
2017-11-09T10:28:54.856Z,11.07
2017-11-09T10:31:21.531Z,11.20
2017-11-09T10:33:47.977Z,13.30
2017-11-09T10:36:14.413Z,13.27
2017-11-09T10:38:40.664Z,11.93
2017-11-09T10:41:06.894Z,12.23
2017-11-09T10:43:33.093Z,12.23
2017-11-09T10:45:59.368Z,14.00
2017-11-09T10:48:25.581Z,11.80
2017-11-09T10:50:51.835Z,13.00
2017-11-09T10:53:18.550Z,13.00
2017-11-09T10:55:44.735Z,12.83
2017-11-09T10:58:11.170Z,13.03
2017-11-09T11:00:43.924Z,12.73
2017-11-09T11:03:10.142Z,13.77
2017-11-09T11:05:36.400Z,14.23
2017-11-09T11:08:02.995Z,13.47
2017-11-09T11:10:29.289Z,13.50
2017-11-09T11:12:55.648Z,12.80
2017-11-09T11:15:22.006Z,14.27
2017-11-09T11:17:48.217Z,13.90
2017-11-09T11:20:14.470Z,14.73
2017-11-09T11:22:40.960Z,13.20
2017-11-09T11:25:07.242Z,13.10
2017-11-09T11:27:33.518Z,13.60
2017-11-09T11:29:59.852Z,13.70
2017-11-09T11:32:26.157Z,14.43
2017-11-09T11:34:52.402Z,15.07
2017-11-09T11:37:18.736Z,14.93
2017-11-09T11:39:45.095Z,15.00
2017-11-09T11:42:11.370Z,17.10
2017-11-09T11:44:38.343Z,17.17
2017-11-09T11:47:04.615Z,17.80
2017-11-09T11:49:30.886Z,16.97
2017-11-09T11:51:57.603Z,18.13
2017-11-09T11:54:24.189Z,16.47
2017-11-09T11:56:50.446Z,16.53
2017-11-09T11:59:16.768Z,15.90
2017-11-09T12:01:43.065Z,17.20
2017-11-09T12:04:09.352Z,16.47
2017-11-09T12:06:35.979Z,18.67
2017-11-09T12:09:02.303Z,17.83
2017-11-09T12:11:28.582Z,19.33
2017-11-09T12:13:54.907Z,17.07
2017-11-09T12:16:21.186Z,18.37
2017-11-09T12:18:47.492Z,19.50
2017-11-09T12:21:13.855Z,18.37
2017-11-09T12:23:40.127Z,17.67
2017-11-09T12:26:06.390Z,18.83
2017-11-09T12:28:32.717Z,18.40
2017-11-09T12:31:02.889Z,18.73
2017-11-09T12:33:29.782Z,18.27
2017-11-09T12:35:56.420Z,18.20
2017-11-09T12:38:22.852Z,19.03
2017-11-09T12:40:49.174Z,17.07
2017-11-09T12:43:15.591Z,17.93
2017-11-09T12:45:41.884Z,18.63
2017-11-09T12:48:08.148Z,16.70
2017-11-09T12:50:34.540Z,18.37
2017-11-09T12:53:00.792Z,19.20
2017-11-09T12:55:27.091Z,17.40
2017-11-09T12:57:53.840Z,18.40
2017-11-09T13:00:20.257Z,18.80
2017-11-09T13:02:46.536Z,19.33
2017-11-09T13:05:12.920Z,18.50
2017-11-09T13:07:39.272Z,19.23
2017-11-09T13:10:06.006Z,19.40
2017-11-09T13:12:32.264Z,17.63
2017-11-09T13:14:58.582Z,18.33
2017-11-09T13:17:24.873Z,18.83
2017-11-09T13:19:51.198Z,18.53
2017-11-09T13:22:17.499Z,17.70
2017-11-09T13:24:43.726Z,18.70
2017-11-09T13:27:10.105Z,18.73
2017-11-09T13:29:36.941Z,18.13
2017-11-09T13:32:03.464Z,17.90
2017-11-09T13:34:38.568Z,18.43
2017-11-09T13:37:04.867Z,17.60
2017-11-09T13:39:31.170Z,17.27
2017-11-09T13:41:57.507Z,16.60
2017-11-09T13:44:23.787Z,18.97
2017-11-09T13:46:50.046Z,18.23
2017-11-09T13:49:16.358Z,17.97
2017-11-09T13:51:42.665Z,17.70
2017-11-09T13:54:09.377Z,18.30
2017-11-09T13:56:35.680Z,17.97
2017-11-09T13:59:01.951Z,17.77
2017-11-09T14:01:28.259Z,17.87
2017-11-09T14:03:54.848Z,18.30
2017-11-09T14:06:21.124Z,18.43
2017-11-09T14:08:47.527Z,18.07
2017-11-09T14:11:13.824Z,17.73
2017-11-09T14:13:40.121Z,18.30
2017-11-09T14:16:06.430Z,17.50
2017-11-09T14:18:32.696Z,18.13
2017-11-09T14:20:59.012Z,19.63
2017-11-09T14:23:25.675Z,18.60
2017-11-09T14:25:51.926Z,19.20
2017-11-09T14:28:18.183Z,17.20
2017-11-09T14:30:44.499Z,17.80
2017-11-09T14:33:10.760Z,18.73
2017-11-09T14:35:37.049Z,17.60
2017-11-09T14:38:03.417Z,17.63
2017-11-09T14:40:29.664Z,17.70
2017-11-09T14:42:56.005Z,18.13
2017-11-09T14:45:22.365Z,17.73
2017-11-09T14:47:48.605Z,17.90
2017-11-09T14:50:15.227Z,16.77
2017-11-09T14:52:41.561Z,17.90
2017-11-09T14:55:07.843Z,17.37
2017-11-09T14:57:34.143Z,18.63
2017-11-09T15:00:00.643Z,18.23
2017-11-09T15:02:26.945Z,17.53
2017-11-09T15:04:53.198Z,18.40
2017-11-09T15:07:19.633Z,17.90
2017-11-09T15:09:45.944Z,16.93
2017-11-09T15:12:12.508Z,16.43
2017-11-09T15:14:39.261Z,16.87
2017-11-09T15:17:05.866Z,17.80
2017-11-09T15:19:32.207Z,16.33
2017-11-09T15:21:58.652Z,18.83
2017-11-09T15:24:24.973Z,16.90
2017-11-09T15:26:51.323Z,17.60
2017-11-09T15:29:18.115Z,16.97
2017-11-09T15:31:46.428Z,17.03
2017-11-09T15:34:12.757Z,16.60
2017-11-09T15:36:39.142Z,17.23
2017-11-09T15:39:05.418Z,18.27
2017-11-09T15:41:31.636Z,16.67
2017-11-09T15:43:57.979Z,19.30
2017-11-09T15:46:24.241Z,16.80
2017-11-09T15:48:50.745Z,18.50
2017-11-09T15:51:17.487Z,18.10
2017-11-09T15:53:43.755Z,17.90
2017-11-09T15:56:10.041Z,17.60
2017-11-09T15:58:36.392Z,17.73
2017-11-09T16:01:02.704Z,17.80
2017-11-09T16:03:28.971Z,17.57
2017-11-09T16:05:55.312Z,18.40
2017-11-09T16:08:21.613Z,17.37
2017-11-09T16:10:47.916Z,19.83
2017-11-09T16:13:14.253Z,16.50
2017-11-09T16:15:40.650Z,17.50
2017-11-09T16:18:06.913Z,17.30
2017-11-09T16:20:33.301Z,18.53
2017-11-09T16:22:59.574Z,16.73
2017-11-09T16:25:25.855Z,17.30
2017-11-09T16:27:52.249Z,19.03
2017-11-09T16:30:18.524Z,18.17
2017-11-09T16:32:44.793Z,19.30
2017-11-09T16:35:11.193Z,17.27
2017-11-09T16:37:37.466Z,19.77
2017-11-09T16:40:03.752Z,17.07
2017-11-09T16:42:36.025Z,17.80
2017-11-09T16:45:02.547Z,19.50
2017-11-09T16:47:28.806Z,19.10
2017-11-09T16:49:55.254Z,19.53
2017-11-09T16:52:21.615Z,18.90
2017-11-09T16:54:47.887Z,18.50
2017-11-09T16:57:14.220Z,17.87
2017-11-09T16:59:40.470Z,20.03
2017-11-09T17:02:06.829Z,19.80
2017-11-09T17:04:33.592Z,18.80
2017-11-09T17:06:59.882Z,18.50
2017-11-09T17:09:26.514Z,19.00
2017-11-09T17:11:52.965Z,17.40
2017-11-09T17:14:19.590Z,17.90
2017-11-09T17:16:45.871Z,18.10
2017-11-09T17:19:12.277Z,18.67
2017-11-09T17:21:38.559Z,18.93
2017-11-09T17:24:04.858Z,19.63
2017-11-09T17:26:31.541Z,18.30
2017-11-09T17:28:57.789Z,18.10
2017-11-09T17:31:24.145Z,19.23
2017-11-09T17:33:50.534Z,18.50
2017-11-09T17:36:16.786Z,19.90
2017-11-09T17:38:43.037Z,18.87
2017-11-09T17:41:11.460Z,18.97
2017-11-09T17:43:37.726Z,18.40
2017-11-09T17:46:04.081Z,18.27
2017-11-09T17:48:31.141Z,18.20
2017-11-09T17:50:57.422Z,17.90
2017-11-09T17:53:23.678Z,18.50
2017-11-09T17:55:50.091Z,19.27
2017-11-09T17:58:16.366Z,18.93
2017-11-09T18:00:42.718Z,18.17
2017-11-09T18:03:10.224Z,19.70
2017-11-09T18:05:36.499Z,19.40
2017-11-09T18:08:02.788Z,17.93
2017-11-09T18:10:29.388Z,19.17
2017-11-09T18:12:55.636Z,19.30
2017-11-09T18:15:21.966Z,17.40
2017-11-09T18:17:48.678Z,18.60
2017-11-09T18:20:14.960Z,18.23
2017-11-09T18:22:43.300Z,16.80
2017-11-09T18:25:09.739Z,19.07
2017-11-09T18:27:36.017Z,17.53
2017-11-09T18:30:02.317Z,19.20
2017-11-09T18:32:28.745Z,17.67
2017-11-09T18:34:55.001Z,18.50
2017-11-09T18:37:21.320Z,19.00
2017-11-09T18:39:47.734Z,20.10
2017-11-09T18:42:13.985Z,19.80
2017-11-09T18:44:40.333Z,19.23
2017-11-09T18:47:06.642Z,19.90
2017-11-09T18:49:32.925Z,17.90
2017-11-09T18:51:59.199Z,17.10
2017-11-09T18:54:25.525Z,17.30
2017-11-09T18:56:51.798Z,18.07
2017-11-09T18:59:18.075Z,19.00
2017-11-09T19:01:44.646Z,18.20
2017-11-09T19:04:10.942Z,18.10
2017-11-09T19:06:37.196Z,17.93
2017-11-09T19:09:03.637Z,19.97
2017-11-09T19:11:29.945Z,17.37
2017-11-09T19:13:56.216Z,17.70
2017-11-09T19:16:23.070Z,18.20
2017-11-09T19:18:49.348Z,17.00
2017-11-09T19:21:15.847Z,18.23
2017-11-09T19:23:42.171Z,17.07
2017-11-09T19:26:08.473Z,17.93
2017-11-09T19:28:34.793Z,18.40
2017-11-09T19:31:01.193Z,18.17
2017-11-09T19:33:27.597Z,18.70
2017-11-09T19:35:53.884Z,17.50
2017-11-09T19:38:20.466Z,16.80
2017-11-09T19:40:46.983Z,17.97
2017-11-09T19:43:13.247Z,18.27
2017-11-09T19:45:39.589Z,17.70
2017-11-09T19:48:05.837Z,16.77
2017-11-09T19:50:32.190Z,17.07
2017-11-09T19:52:58.821Z,16.33
2017-11-09T19:55:25.128Z,16.67
2017-11-09T19:57:51.393Z,17.17
2017-11-09T20:00:17.727Z,17.17
2017-11-09T20:02:44.029Z,15.47
2017-11-09T20:05:10.305Z,15.73
2017-11-09T20:07:36.820Z,15.87
2017-11-09T20:10:03.146Z,16.10
2017-11-09T20:12:29.703Z,14.70
2017-11-09T20:14:56.501Z,16.30
2017-11-09T20:17:22.759Z,16.17
2017-11-09T20:19:49.048Z,14.57
2017-11-09T20:22:15.359Z,14.27
2017-11-09T20:24:41.655Z,15.80
2017-11-09T20:27:08.001Z,14.97
2017-11-09T20:29:34.688Z,15.50
2017-11-09T20:32:01.207Z,15.67
2017-11-09T20:34:27.544Z,14.87
2017-11-09T20:36:54.249Z,13.80
2017-11-09T20:39:20.470Z,14.30
2017-11-09T20:41:46.775Z,14.10
2017-11-09T20:44:13.536Z,14.23
2017-11-09T20:46:39.829Z,14.20
2017-11-09T20:49:06.271Z,13.37
2017-11-09T20:51:32.600Z,13.23
2017-11-09T20:53:58.875Z,14.33
2017-11-09T20:56:25.202Z,14.40
2017-11-09T20:58:51.942Z,13.97
2017-11-09T21:01:18.230Z,14.00
2017-11-09T21:03:44.503Z,13.53
2017-11-09T21:06:10.832Z,12.87
2017-11-09T21:08:37.278Z,13.23
2017-11-09T21:11:03.632Z,13.23
2017-11-09T21:13:30.287Z,13.17
2017-11-09T21:15:56.774Z,12.70
2017-11-09T21:18:23.076Z,12.97
2017-11-09T21:20:49.878Z,13.90
2017-11-09T21:23:16.142Z,12.60
2017-11-09T21:25:42.418Z,12.57
2017-11-09T21:28:09.045Z,12.27
2017-11-09T21:30:35.318Z,12.40
2017-11-09T21:33:01.593Z,13.00
2017-11-09T21:35:27.876Z,12.10
2017-11-09T21:37:54.285Z,12.97
2017-11-09T21:40:20.818Z,13.00
2017-11-09T21:42:47.326Z,10.67
2017-11-09T21:45:14.046Z,12.47
2017-11-09T21:47:40.334Z,11.20
2017-11-09T21:50:06.759Z,10.40
2017-11-09T21:52:33.190Z,11.00
2017-11-09T21:54:59.506Z,10.50
2017-11-09T21:57:25.784Z,12.57
2017-11-09T21:59:52.300Z,11.47
2017-11-09T22:02:18.563Z,10.80
2017-11-09T22:04:44.959Z,11.67
2017-11-09T22:07:11.645Z,10.40
2017-11-09T22:09:37.916Z,11.10
2017-11-09T22:12:04.185Z,10.67
2017-11-09T22:14:30.522Z,11.83
2017-11-09T22:16:56.854Z,10.57
2017-11-09T22:19:23.361Z,10.10
2017-11-09T22:21:49.755Z,10.47
2017-11-09T22:24:16.092Z,10.73
2017-11-09T22:26:42.419Z,11.07
2017-11-09T22:29:09.337Z,9.40
2017-11-09T22:31:35.637Z,11.37
2017-11-09T22:34:02.145Z,10.10
2017-11-09T22:36:28.561Z,10.03
2017-11-09T22:38:54.942Z,9.50
2017-11-09T22:41:21.234Z,10.47
2017-11-09T22:43:47.657Z,10.47
2017-11-09T22:46:13.953Z,10.70
2017-11-09T22:48:42.757Z,9.40
2017-11-09T22:51:09.187Z,8.40
2017-11-09T22:53:35.481Z,9.53
2017-11-09T22:56:01.771Z,10.17
2017-11-09T22:58:28.547Z,9.47
2017-11-09T23:00:54.869Z,9.90
2017-11-09T23:03:21.153Z,9.27
2017-11-09T23:05:47.689Z,10.43
2017-11-09T23:08:14.169Z,8.70
2017-11-09T23:10:40.509Z,9.50
2017-11-09T23:13:07.041Z,10.17
2017-11-09T23:15:33.368Z,8.77
2017-11-09T23:18:01.796Z,9.00
2017-11-09T23:20:28.234Z,10.27
2017-11-09T23:22:54.499Z,8.77
2017-11-09T23:25:20.794Z,9.33
2017-11-09T23:27:47.072Z,8.50
2017-11-09T23:30:13.320Z,8.33
2017-11-09T23:32:39.880Z,10.67
2017-11-09T23:35:06.134Z,8.77
2017-11-09T23:37:32.385Z,9.20
2017-11-09T23:39:58.917Z,8.53
2017-11-09T23:42:25.154Z,8.80
2017-11-09T23:44:51.628Z,8.30
2017-11-09T23:47:18.006Z,9.10
2017-11-09T23:49:44.355Z,8.33
2017-11-09T23:52:10.593Z,9.30
2017-11-09T23:54:36.987Z,8.57
2017-11-09T23:57:03.226Z,7.77
2017-11-09T23:59:29.461Z,8.37
